sensor_id;sensor_type;location;lat;lon;timestamp;temperature;humidity
4922;DHT22;16625;53.624;10.106;2022-07-10T00:00:00;13.70;99.90
4922;DHT22;16625;53.624;10.106;2022-07-10T00:02:27;12.20;99.90
4922;DHT22;16625;53.624;10.106;2022-07-10T00:04:54;13.20;99.90
4922;DHT22;16625;53.624;10.106;2022-07-10T00:07:21;13.10;99.90
4922;DHT22;16625;53.624;10.106;2022-07-10T00:09:50;14.20;99.90
4922;DHT22;16625;53.624;10.106;2022-07-10T00:12:18;13.10;99.90
4922;DHT22;16625;53.624;10.106;2022-07-10T00:14:45;13.50;99.90
4922;DHT22;16625;53.624;10.106;2022-07-10T00:17:13;14.30;99.90
4922;DHT22;16625;53.624;10.106;2022-07-10T00:19:40;14.20;99.90
4922;DHT22;16625;53.624;10.106;2022-07-10T00:22:08;13.80;99.90
4922;DHT22;16625;53.624;10.106;2022-07-10T00:24:35;13.40;99.90
4922;DHT22;16625;53.624;10.106;2022-07-10T00:27:05;13.10;99.90
4922;DHT22;16625;53.624;10.106;2022-07-10T00:29:32;12.90;99.90
4922;DHT22;16625;53.624;10.106;2022-07-10T00:31:59;12.80;99.90
4922;DHT22;16625;53.624;10.106;2022-07-10T00:34:26;13.10;99.90
4922;DHT22;16625;53.624;10.106;2022-07-10T00:36:54;13.00;99.90
4922;DHT22;16625;53.624;10.106;2022-07-10T00:39:22;13.90;99.90
4922;DHT22;16625;53.624;10.106;2022-07-10T00:41:49;12.90;99.90
4922;DHT22;16625;53.624;10.106;2022-07-10T00:44:18;13.00;99.90
4922;DHT22;16625;53.624;10.106;2022-07-10T00:46:45;13.10;99.90
4922;DHT22;16625;53.624;10.106;2022-07-10T00:49:20;13.90;99.90
4922;DHT22;16625;53.624;10.106;2022-07-10T00:51:48;14.20;99.90
4922;DHT22;16625;53.624;10.106;2022-07-10T00:54:16;13.90;99.90
4922;DHT22;16625;53.624;10.106;2022-07-10T00:56:44;12.90;99.90
4922;DHT22;16625;53.624;10.106;2022-07-10T00:59:11;13.70;99.90
4922;DHT22;16625;53.624;10.106;2022-07-10T01:01:41;13.90;99.90
4922;DHT22;16625;53.624;10.106;2022-07-10T01:04:09;13.00;99.90
4922;DHT22;16625;53.624;10.106;2022-07-10T01:06:37;14.00;99.90
4922;DHT22;16625;53.624;10.106;2022-07-10T01:09:06;13.00;99.90
4922;DHT22;16625;53.624;10.106;2022-07-10T01:11:34;13.50;99.90
4922;DHT22;16625;53.624;10.106;2022-07-10T01:14:04;13.50;99.90
4922;DHT22;16625;53.624;10.106;2022-07-10T01:16:31;13.10;99.90
4922;DHT22;16625;53.624;10.106;2022-07-10T01:19:00;13.50;99.90
4922;DHT22;16625;53.624;10.106;2022-07-10T01:21:30;13.10;99.90
4922;DHT22;16625;53.624;10.106;2022-07-10T01:24:03;14.40;99.90
4922;DHT22;16625;53.624;10.106;2022-07-10T01:26:31;13.20;99.90
4922;DHT22;16625;53.624;10.106;2022-07-10T01:29:02;13.00;99.90
4922;DHT22;16625;53.624;10.106;2022-07-10T01:31:29;14.10;99.90
4922;DHT22;16625;53.624;10.106;2022-07-10T01:33:59;13.10;99.90
4922;DHT22;16625;53.624;10.106;2022-07-10T01:36:45;13.80;99.90
4922;DHT22;16625;53.624;10.106;2022-07-10T01:39:13;13.70;99.90
4922;DHT22;16625;53.624;10.106;2022-07-10T01:41:40;13.00;99.90
4922;DHT22;16625;53.624;10.106;2022-07-10T01:44:07;13.10;99.90
4922;DHT22;16625;53.624;10.106;2022-07-10T01:46:34;13.10;99.90
4922;DHT22;16625;53.624;10.106;2022-07-10T01:49:03;13.30;99.90
4922;DHT22;16625;53.624;10.106;2022-07-10T01:51:30;14.20;99.90
4922;DHT22;16625;53.624;10.106;2022-07-10T01:53:58;12.50;99.90
4922;DHT22;16625;53.624;10.106;2022-07-10T01:56:25;14.40;99.90
4922;DHT22;16625;53.624;10.106;2022-07-10T01:58:52;13.10;99.90
4922;DHT22;16625;53.624;10.106;2022-07-10T02:01:25;13.80;99.90
4922;DHT22;16625;53.624;10.106;2022-07-10T02:03:53;13.20;99.90
4922;DHT22;16625;53.624;10.106;2022-07-10T02:06:37;13.90;99.90
4922;DHT22;16625;53.624;10.106;2022-07-10T02:09:06;13.20;99.90
4922;DHT22;16625;53.624;10.106;2022-07-10T02:11:33;14.10;99.90
4922;DHT22;16625;53.624;10.106;2022-07-10T02:14:00;13.60;99.90
4922;DHT22;16625;53.624;10.106;2022-07-10T02:16:27;13.40;99.90
4922;DHT22;16625;53.624;10.106;2022-07-10T02:18:55;13.30;99.90
4922;DHT22;16625;53.624;10.106;2022-07-10T02:21:22;14.50;99.90
4922;DHT22;16625;53.624;10.106;2022-07-10T02:23:49;13.50;99.90
4922;DHT22;16625;53.624;10.106;2022-07-10T02:26:18;14.30;99.90
4922;DHT22;16625;53.624;10.106;2022-07-10T02:28:45;13.30;99.90
4922;DHT22;16625;53.624;10.106;2022-07-10T02:31:12;13.50;99.90
4922;DHT22;16625;53.624;10.106;2022-07-10T02:33:39;14.40;99.90
4922;DHT22;16625;53.624;10.106;2022-07-10T02:36:06;14.10;99.90
4922;DHT22;16625;53.624;10.106;2022-07-10T02:38:33;13.20;99.90
4922;DHT22;16625;53.624;10.106;2022-07-10T02:41:00;13.20;99.90
4922;DHT22;16625;53.624;10.106;2022-07-10T02:43:29;13.90;99.90
4922;DHT22;16625;53.624;10.106;2022-07-10T02:45:56;13.80;99.90
4922;DHT22;16625;53.624;10.106;2022-07-10T02:48:23;13.90;99.90
4922;DHT22;16625;53.624;10.106;2022-07-10T02:50:50;13.50;99.90
4922;DHT22;16625;53.624;10.106;2022-07-10T02:53:18;13.70;99.90
4922;DHT22;16625;53.624;10.106;2022-07-10T02:55:46;13.20;99.90
4922;DHT22;16625;53.624;10.106;2022-07-10T02:58:13;14.10;99.90
4922;DHT22;16625;53.624;10.106;2022-07-10T03:00:42;13.20;99.90
4922;DHT22;16625;53.624;10.106;2022-07-10T03:03:09;14.20;99.90
4922;DHT22;16625;53.624;10.106;2022-07-10T03:05:36;13.20;99.90
4922;DHT22;16625;53.624;10.106;2022-07-10T03:08:04;13.70;99.90
4922;DHT22;16625;53.624;10.106;2022-07-10T03:10:32;13.30;99.90
4922;DHT22;16625;53.624;10.106;2022-07-10T03:13:00;14.40;99.90
4922;DHT22;16625;53.624;10.106;2022-07-10T03:15:27;14.70;99.90
4922;DHT22;16625;53.624;10.106;2022-07-10T03:17:56;13.30;99.90
4922;DHT22;16625;53.624;10.106;2022-07-10T03:20:23;13.40;99.90
4922;DHT22;16625;53.624;10.106;2022-07-10T03:22:53;13.40;99.90
4922;DHT22;16625;53.624;10.106;2022-07-10T03:25:20;13.40;99.90
4922;DHT22;16625;53.624;10.106;2022-07-10T03:27:47;13.00;99.90
4922;DHT22;16625;53.624;10.106;2022-07-10T03:30:14;14.50;99.90
4922;DHT22;16625;53.624;10.106;2022-07-10T03:32:41;13.40;99.90
4922;DHT22;16625;53.624;10.106;2022-07-10T03:35:13;14.50;99.90
4922;DHT22;16625;53.624;10.106;2022-07-10T03:37:42;13.40;99.90
4922;DHT22;16625;53.624;10.106;2022-07-10T03:40:12;14.40;99.90
4922;DHT22;16625;53.624;10.106;2022-07-10T03:42:39;13.50;99.90
4922;DHT22;16625;53.624;10.106;2022-07-10T03:45:08;13.80;99.90
4922;DHT22;16625;53.624;10.106;2022-07-10T03:47:35;13.50;99.90
4922;DHT22;16625;53.624;10.106;2022-07-10T03:50:03;14.20;99.90
4922;DHT22;16625;53.624;10.106;2022-07-10T03:52:33;13.40;99.90
4922;DHT22;16625;53.624;10.106;2022-07-10T03:55:01;13.50;99.90
4922;DHT22;16625;53.624;10.106;2022-07-10T03:57:28;13.60;99.90
4922;DHT22;16625;53.624;10.106;2022-07-10T04:00:13;14.60;99.90
4922;DHT22;16625;53.624;10.106;2022-07-10T04:02:42;13.60;99.90
4922;DHT22;16625;53.624;10.106;2022-07-10T04:05:23;13.70;99.90
4922;DHT22;16625;53.624;10.106;2022-07-10T04:07:52;14.00;99.90
4922;DHT22;16625;53.624;10.106;2022-07-10T04:10:23;14.40;99.90
4922;DHT22;16625;53.624;10.106;2022-07-10T04:12:51;13.60;99.90
4922;DHT22;16625;53.624;10.106;2022-07-10T04:15:20;14.60;99.90
4922;DHT22;16625;53.624;10.106;2022-07-10T04:17:48;14.50;99.90
4922;DHT22;16625;53.624;10.106;2022-07-10T04:20:15;13.70;99.90
4922;DHT22;16625;53.624;10.106;2022-07-10T04:22:43;13.80;99.90
4922;DHT22;16625;53.624;10.106;2022-07-10T04:25:14;14.70;99.90
4922;DHT22;16625;53.624;10.106;2022-07-10T04:27:43;13.80;99.90
4922;DHT22;16625;53.624;10.106;2022-07-10T04:30:11;13.90;99.90
4922;DHT22;16625;53.624;10.106;2022-07-10T04:32:41;14.00;99.90
4922;DHT22;16625;53.624;10.106;2022-07-10T04:35:08;14.00;99.90
4922;DHT22;16625;53.624;10.106;2022-07-10T04:37:36;14.00;99.90
4922;DHT22;16625;53.624;10.106;2022-07-10T04:40:05;14.00;99.90
4922;DHT22;16625;53.624;10.106;2022-07-10T04:42:34;14.00;99.90
4922;DHT22;16625;53.624;10.106;2022-07-10T04:45:02;13.90;99.90
4922;DHT22;16625;53.624;10.106;2022-07-10T04:47:32;13.80;99.90
4922;DHT22;16625;53.624;10.106;2022-07-10T04:50:01;14.80;99.90
4922;DHT22;16625;53.624;10.106;2022-07-10T04:52:34;13.00;99.90
4922;DHT22;16625;53.624;10.106;2022-07-10T04:55:05;15.10;99.90
4922;DHT22;16625;53.624;10.106;2022-07-10T04:57:37;13.90;99.90
4922;DHT22;16625;53.624;10.106;2022-07-10T05:00:11;14.10;99.90
4922;DHT22;16625;53.624;10.106;2022-07-10T05:02:42;14.10;99.90
4922;DHT22;16625;53.624;10.106;2022-07-10T05:05:09;14.10;99.90
4922;DHT22;16625;53.624;10.106;2022-07-10T05:07:36;14.10;99.90
4922;DHT22;16625;53.624;10.106;2022-07-10T05:10:10;15.00;99.90
4922;DHT22;16625;53.624;10.106;2022-07-10T05:12:38;15.10;99.90
4922;DHT22;16625;53.624;10.106;2022-07-10T05:15:06;14.50;99.90
4922;DHT22;16625;53.624;10.106;2022-07-10T05:17:34;14.10;99.90
4922;DHT22;16625;53.624;10.106;2022-07-10T05:20:02;14.80;99.90
4922;DHT22;16625;53.624;10.106;2022-07-10T05:22:31;14.30;99.90
4922;DHT22;16625;53.624;10.106;2022-07-10T05:25:00;14.40;99.90
4922;DHT22;16625;53.624;10.106;2022-07-10T05:27:33;14.30;99.90
4922;DHT22;16625;53.624;10.106;2022-07-10T05:30:26;15.20;99.90
4922;DHT22;16625;53.624;10.106;2022-07-10T05:33:07;14.40;99.90
4922;DHT22;16625;53.624;10.106;2022-07-10T05:35:49;16.00;99.90
4922;DHT22;16625;53.624;10.106;2022-07-10T05:38:18;14.50;99.90
4922;DHT22;16625;53.624;10.106;2022-07-10T05:41:01;15.90;99.90
4922;DHT22;16625;53.624;10.106;2022-07-10T05:43:46;14.80;99.90
4922;DHT22;16625;53.624;10.106;2022-07-10T05:49:39;15.10;99.90
4922;DHT22;16625;53.624;10.106;2022-07-10T05:52:08;14.60;99.90
4922;DHT22;16625;53.624;10.106;2022-07-10T05:54:38;14.70;99.90
4922;DHT22;16625;53.624;10.106;2022-07-10T05:57:20;14.80;99.90
4922;DHT22;16625;53.624;10.106;2022-07-10T05:59:51;14.00;99.90
4922;DHT22;16625;53.624;10.106;2022-07-10T06:02:34;16.10;99.90
4922;DHT22;16625;53.624;10.106;2022-07-10T06:05:18;15.00;99.90
4922;DHT22;16625;53.624;10.106;2022-07-10T06:07:45;15.20;99.90
4922;DHT22;16625;53.624;10.106;2022-07-10T06:10:12;16.50;99.90
4922;DHT22;16625;53.624;10.106;2022-07-10T06:12:47;15.20;99.90
4922;DHT22;16625;53.624;10.106;2022-07-10T06:15:43;15.20;99.90
4922;DHT22;16625;53.624;10.106;2022-07-10T06:18:41;15.10;99.90
4922;DHT22;16625;53.624;10.106;2022-07-10T06:21:25;15.00;99.90
4922;DHT22;16625;53.624;10.106;2022-07-10T06:23:59;15.10;99.90
4922;DHT22;16625;53.624;10.106;2022-07-10T06:26:26;15.80;99.90
4922;DHT22;16625;53.624;10.106;2022-07-10T06:28:53;15.90;99.90
4922;DHT22;16625;53.624;10.106;2022-07-10T06:31:25;15.20;99.90
4922;DHT22;16625;53.624;10.106;2022-07-10T06:36:32;15.40;99.90
4922;DHT22;16625;53.624;10.106;2022-07-10T06:39:22;16.60;99.90
4922;DHT22;16625;53.624;10.106;2022-07-10T06:42:05;15.60;99.90
4922;DHT22;16625;53.624;10.106;2022-07-10T06:44:51;15.80;99.90
4922;DHT22;16625;53.624;10.106;2022-07-10T06:48:01;16.50;99.90
4922;DHT22;16625;53.624;10.106;2022-07-10T06:50:44;16.20;99.90
4922;DHT22;16625;53.624;10.106;2022-07-10T06:53:29;15.50;99.90
4922;DHT22;16625;53.624;10.106;2022-07-10T06:56:08;16.10;99.90
4922;DHT22;16625;53.624;10.106;2022-07-10T06:59:09;15.80;99.90
4922;DHT22;16625;53.624;10.106;2022-07-10T07:02:04;15.30;99.90
4922;DHT22;16625;53.624;10.106;2022-07-10T07:04:49;15.80;99.90
4922;DHT22;16625;53.624;10.106;2022-07-10T07:07:30;16.90;99.90
4922;DHT22;16625;53.624;10.106;2022-07-10T07:13:21;15.70;99.90
4922;DHT22;16625;53.624;10.106;2022-07-10T07:25:22;16.80;99.90
4922;DHT22;16625;53.624;10.106;2022-07-10T07:27:50;17.80;99.90
4922;DHT22;16625;53.624;10.106;2022-07-10T07:30:32;16.40;99.90
4922;DHT22;16625;53.624;10.106;2022-07-10T07:33:06;16.50;99.90
4922;DHT22;16625;53.624;10.106;2022-07-10T07:35:50;16.50;99.90
4922;DHT22;16625;53.624;10.106;2022-07-10T07:38:33;17.20;99.90
4922;DHT22;16625;53.624;10.106;2022-07-10T07:41:39;16.50;99.90
4922;DHT22;16625;53.624;10.106;2022-07-10T07:44:20;17.40;99.90
4922;DHT22;16625;53.624;10.106;2022-07-10T07:50:35;17.50;99.90
4922;DHT22;16625;53.624;10.106;2022-07-10T07:53:05;17.20;99.90
4922;DHT22;16625;53.624;10.106;2022-07-10T07:55:39;16.20;99.90
4922;DHT22;16625;53.624;10.106;2022-07-10T07:58:12;16.60;99.90
4922;DHT22;16625;53.624;10.106;2022-07-10T08:00:55;16.00;99.90
4922;DHT22;16625;53.624;10.106;2022-07-10T08:03:26;16.70;99.90
4922;DHT22;16625;53.624;10.106;2022-07-10T08:06:37;18.40;99.90
4922;DHT22;16625;53.624;10.106;2022-07-10T08:09:18;17.80;99.90
4922;DHT22;16625;53.624;10.106;2022-07-10T08:12:01;16.70;99.90
4922;DHT22;16625;53.624;10.106;2022-07-10T08:14:45;17.20;99.90
4922;DHT22;16625;53.624;10.106;2022-07-10T08:17:37;16.60;99.90
4922;DHT22;16625;53.624;10.106;2022-07-10T08:20:21;16.60;99.90
4922;DHT22;16625;53.624;10.106;2022-07-10T08:23:07;16.80;99.90
4922;DHT22;16625;53.624;10.106;2022-07-10T08:25:49;18.00;99.90
4922;DHT22;16625;53.624;10.106;2022-07-10T08:28:18;17.40;99.90
4922;DHT22;16625;53.624;10.106;2022-07-10T08:30:59;17.60;99.90
4922;DHT22;16625;53.624;10.106;2022-07-10T08:33:42;17.80;99.90
4922;DHT22;16625;53.624;10.106;2022-07-10T08:36:14;18.70;99.90
4922;DHT22;16625;53.624;10.106;2022-07-10T08:42:17;18.00;99.90
4922;DHT22;16625;53.624;10.106;2022-07-10T08:45:00;18.00;99.90
4922;DHT22;16625;53.624;10.106;2022-07-10T08:47:31;17.80;99.90
4922;DHT22;16625;53.624;10.106;2022-07-10T08:50:05;17.90;99.90
4922;DHT22;16625;53.624;10.106;2022-07-10T08:52:58;18.00;99.90
4922;DHT22;16625;53.624;10.106;2022-07-10T08:55:48;18.00;99.90
4922;DHT22;16625;53.624;10.106;2022-07-10T09:08:25;18.60;99.90
4922;DHT22;16625;53.624;10.106;2022-07-10T09:11:17;18.20;99.90
4922;DHT22;16625;53.624;10.106;2022-07-10T09:13:49;17.90;99.90
4922;DHT22;16625;53.624;10.106;2022-07-10T09:16:24;18.20;99.90
4922;DHT22;16625;53.624;10.106;2022-07-10T09:18:52;18.30;99.90
4922;DHT22;16625;53.624;10.106;2022-07-10T09:21:24;18.60;99.90
4922;DHT22;16625;53.624;10.106;2022-07-10T09:24:07;19.80;99.90
4922;DHT22;16625;53.624;10.106;2022-07-10T09:26:37;19.20;99.90
4922;DHT22;16625;53.624;10.106;2022-07-10T09:29:07;18.70;99.90
4922;DHT22;16625;53.624;10.106;2022-07-10T09:31:51;19.00;99.90
4922;DHT22;16625;53.624;10.106;2022-07-10T09:34:34;19.00;99.90
4922;DHT22;16625;53.624;10.106;2022-07-10T09:37:17;19.80;99.90
4922;DHT22;16625;53.624;10.106;2022-07-10T09:39:53;17.70;99.90
4922;DHT22;16625;53.624;10.106;2022-07-10T09:42:27;18.30;99.90
4922;DHT22;16625;53.624;10.106;2022-07-10T09:45:12;18.30;99.90
4922;DHT22;16625;53.624;10.106;2022-07-10T09:47:42;18.40;99.90
4922;DHT22;16625;53.624;10.106;2022-07-10T09:50:20;18.70;99.90
4922;DHT22;16625;53.624;10.106;2022-07-10T09:52:50;18.30;99.90
4922;DHT22;16625;53.624;10.106;2022-07-10T09:55:20;19.90;99.90
4922;DHT22;16625;53.624;10.106;2022-07-10T09:57:53;19.40;99.90
4922;DHT22;16625;53.624;10.106;2022-07-10T10:00:23;20.40;99.90
4922;DHT22;16625;53.624;10.106;2022-07-10T10:02:55;18.80;99.90
4922;DHT22;16625;53.624;10.106;2022-07-10T10:05:31;18.70;99.90
4922;DHT22;16625;53.624;10.106;2022-07-10T10:08:02;17.80;99.90
4922;DHT22;16625;53.624;10.106;2022-07-10T10:10:34;18.70;99.90
4922;DHT22;16625;53.624;10.106;2022-07-10T10:13:03;19.70;99.90
4922;DHT22;16625;53.624;10.106;2022-07-10T10:15:35;19.10;99.90
4922;DHT22;16625;53.624;10.106;2022-07-10T10:18:03;20.10;99.90
4922;DHT22;16625;53.624;10.106;2022-07-10T10:20:32;19.70;99.90
4922;DHT22;16625;53.624;10.106;2022-07-10T10:23:09;20.80;99.90
4922;DHT22;16625;53.624;10.106;2022-07-10T10:25:40;20.80;99.90
4922;DHT22;16625;53.624;10.106;2022-07-10T10:28:09;19.90;99.90
4922;DHT22;16625;53.624;10.106;2022-07-10T10:30:37;19.80;99.90
4922;DHT22;16625;53.624;10.106;2022-07-10T10:36:08;19.30;99.90
4922;DHT22;16625;53.624;10.106;2022-07-10T10:39:03;20.50;99.90
4922;DHT22;16625;53.624;10.106;2022-07-10T10:41:38;19.00;99.90
4922;DHT22;16625;53.624;10.106;2022-07-10T10:44:28;19.90;99.90
4922;DHT22;16625;53.624;10.106;2022-07-10T10:47:05;19.30;99.90
4922;DHT22;16625;53.624;10.106;2022-07-10T10:49:55;19.10;99.90
4922;DHT22;16625;53.624;10.106;2022-07-10T10:52:27;19.10;99.90
4922;DHT22;16625;53.624;10.106;2022-07-10T10:55:05;19.50;99.90
4922;DHT22;16625;53.624;10.106;2022-07-10T10:57:46;19.40;99.90
4922;DHT22;16625;53.624;10.106;2022-07-10T11:00:33;19.30;99.90
4922;DHT22;16625;53.624;10.106;2022-07-10T11:03:14;19.60;99.90
4922;DHT22;16625;53.624;10.106;2022-07-10T11:05:42;20.00;99.90
4922;DHT22;16625;53.624;10.106;2022-07-10T11:08:10;20.00;99.90
4922;DHT22;16625;53.624;10.106;2022-07-10T11:10:38;20.90;99.90
4922;DHT22;16625;53.624;10.106;2022-07-10T11:13:08;19.80;99.90
4922;DHT22;16625;53.624;10.106;2022-07-10T11:15:36;20.00;99.90
4922;DHT22;16625;53.624;10.106;2022-07-10T11:18:05;19.40;99.90
4922;DHT22;16625;53.624;10.106;2022-07-10T11:20:34;20.20;99.90
4922;DHT22;16625;53.624;10.106;2022-07-10T11:23:37;18.90;99.90
4922;DHT22;16625;53.624;10.106;2022-07-10T11:26:10;19.30;99.90
4922;DHT22;16625;53.624;10.106;2022-07-10T11:28:49;19.90;99.90
4922;DHT22;16625;53.624;10.106;2022-07-10T11:31:17;19.90;99.90
4922;DHT22;16625;53.624;10.106;2022-07-10T11:33:45;20.50;99.90
4922;DHT22;16625;53.624;10.106;2022-07-10T11:36:15;20.40;99.90
4922;DHT22;16625;53.624;10.106;2022-07-10T11:38:43;21.00;99.90
4922;DHT22;16625;53.624;10.106;2022-07-10T11:41:17;19.70;99.90
4922;DHT22;16625;53.624;10.106;2022-07-10T11:43:53;20.00;99.90
4922;DHT22;16625;53.624;10.106;2022-07-10T11:46:22;19.70;99.90
4922;DHT22;16625;53.624;10.106;2022-07-10T11:48:51;19.60;99.90
4922;DHT22;16625;53.624;10.106;2022-07-10T11:51:24;19.60;99.90
4922;DHT22;16625;53.624;10.106;2022-07-10T11:53:56;19.80;99.90
4922;DHT22;16625;53.624;10.106;2022-07-10T11:56:24;20.20;99.90
4922;DHT22;16625;53.624;10.106;2022-07-10T11:59:00;20.20;99.90
4922;DHT22;16625;53.624;10.106;2022-07-10T12:01:28;20.00;99.90
4922;DHT22;16625;53.624;10.106;2022-07-10T12:03:57;19.60;99.90
4922;DHT22;16625;53.624;10.106;2022-07-10T12:06:24;19.60;99.90
4922;DHT22;16625;53.624;10.106;2022-07-10T12:08:52;19.60;99.90
4922;DHT22;16625;53.624;10.106;2022-07-10T12:11:20;19.60;99.90
4922;DHT22;16625;53.624;10.106;2022-07-10T12:13:50;19.60;99.90
4922;DHT22;16625;53.624;10.106;2022-07-10T12:16:18;19.40;99.90
4922;DHT22;16625;53.624;10.106;2022-07-10T12:18:46;19.40;99.90
4922;DHT22;16625;53.624;10.106;2022-07-10T12:21:14;19.80;99.90
4922;DHT22;16625;53.624;10.106;2022-07-10T12:23:45;19.80;99.90
4922;DHT22;16625;53.624;10.106;2022-07-10T12:26:14;20.10;99.90
4922;DHT22;16625;53.624;10.106;2022-07-10T12:28:49;19.60;99.90
4922;DHT22;16625;53.624;10.106;2022-07-10T12:31:22;19.40;99.90
4922;DHT22;16625;53.624;10.106;2022-07-10T12:33:53;19.70;99.90
4922;DHT22;16625;53.624;10.106;2022-07-10T12:36:23;19.50;99.90
4922;DHT22;16625;53.624;10.106;2022-07-10T12:38:56;19.60;99.90
4922;DHT22;16625;53.624;10.106;2022-07-10T12:41:24;19.50;99.90
4922;DHT22;16625;53.624;10.106;2022-07-10T12:43:52;19.60;99.90
4922;DHT22;16625;53.624;10.106;2022-07-10T12:46:22;19.60;99.90
4922;DHT22;16625;53.624;10.106;2022-07-10T12:49:02;19.70;99.90
4922;DHT22;16625;53.624;10.106;2022-07-10T12:51:31;19.50;99.90
4922;DHT22;16625;53.624;10.106;2022-07-10T12:54:00;19.90;99.90
4922;DHT22;16625;53.624;10.106;2022-07-10T12:56:28;20.10;99.90
4922;DHT22;16625;53.624;10.106;2022-07-10T12:58:55;19.80;99.90
4922;DHT22;16625;53.624;10.106;2022-07-10T13:01:25;20.20;99.90
4922;DHT22;16625;53.624;10.106;2022-07-10T13:04:00;19.20;99.90
4922;DHT22;16625;53.624;10.106;2022-07-10T13:06:32;19.30;99.90
4922;DHT22;16625;53.624;10.106;2022-07-10T13:09:00;19.40;99.90
4922;DHT22;16625;53.624;10.106;2022-07-10T13:11:27;19.00;99.90
4922;DHT22;16625;53.624;10.106;2022-07-10T13:13:54;19.20;99.90
4922;DHT22;16625;53.624;10.106;2022-07-10T13:16:21;19.00;99.90
4922;DHT22;16625;53.624;10.106;2022-07-10T13:18:51;18.80;99.90
4922;DHT22;16625;53.624;10.106;2022-07-10T13:21:18;19.60;99.90
4922;DHT22;16625;53.624;10.106;2022-07-10T13:23:44;18.90;99.90
4922;DHT22;16625;53.624;10.106;2022-07-10T13:26:13;19.00;99.90
4922;DHT22;16625;53.624;10.106;2022-07-10T13:28:40;19.20;99.90
4922;DHT22;16625;53.624;10.106;2022-07-10T13:31:07;19.60;99.90
4922;DHT22;16625;53.624;10.106;2022-07-10T13:33:34;19.90;99.90
4922;DHT22;16625;53.624;10.106;2022-07-10T13:36:03;19.60;99.90
4922;DHT22;16625;53.624;10.106;2022-07-10T13:38:30;18.40;99.90
4922;DHT22;16625;53.624;10.106;2022-07-10T13:40:58;18.90;99.90
4922;DHT22;16625;53.624;10.106;2022-07-10T13:43:25;19.60;99.90
4922;DHT22;16625;53.624;10.106;2022-07-10T13:45:56;18.80;99.90
4922;DHT22;16625;53.624;10.106;2022-07-10T13:48:24;19.70;99.90
4922;DHT22;16625;53.624;10.106;2022-07-10T13:50:51;19.40;99.90
4922;DHT22;16625;53.624;10.106;2022-07-10T13:53:20;19.50;99.90
4922;DHT22;16625;53.624;10.106;2022-07-10T13:55:48;19.60;99.90
4922;DHT22;16625;53.624;10.106;2022-07-10T13:58:15;20.60;99.90
4922;DHT22;16625;53.624;10.106;2022-07-10T14:00:44;19.80;99.90
4922;DHT22;16625;53.624;10.106;2022-07-10T14:03:10;19.90;99.90
4922;DHT22;16625;53.624;10.106;2022-07-10T14:05:37;19.90;99.90
4922;DHT22;16625;53.624;10.106;2022-07-10T14:08:04;20.10;99.90
4922;DHT22;16625;53.624;10.106;2022-07-10T14:10:32;19.40;99.90
4922;DHT22;16625;53.624;10.106;2022-07-10T14:12:59;19.40;99.90
4922;DHT22;16625;53.624;10.106;2022-07-10T14:15:26;19.50;99.90
4922;DHT22;16625;53.624;10.106;2022-07-10T14:17:53;19.60;99.90
4922;DHT22;16625;53.624;10.106;2022-07-10T14:20:20;19.80;99.90
4922;DHT22;16625;53.624;10.106;2022-07-10T14:22:47;19.50;99.90
4922;DHT22;16625;53.624;10.106;2022-07-10T14:25:14;19.60;99.90
4922;DHT22;16625;53.624;10.106;2022-07-10T14:27:42;19.50;99.90
4922;DHT22;16625;53.624;10.106;2022-07-10T14:30:10;19.40;99.90
4922;DHT22;16625;53.624;10.106;2022-07-10T14:32:37;19.40;99.90
4922;DHT22;16625;53.624;10.106;2022-07-10T14:35:05;19.70;99.90
4922;DHT22;16625;53.624;10.106;2022-07-10T14:37:32;19.90;99.90
4922;DHT22;16625;53.624;10.106;2022-07-10T14:39:59;19.90;99.90
4922;DHT22;16625;53.624;10.106;2022-07-10T14:42:26;19.90;99.90
4922;DHT22;16625;53.624;10.106;2022-07-10T14:44:54;19.60;99.90
4922;DHT22;16625;53.624;10.106;2022-07-10T14:47:21;19.50;99.90
4922;DHT22;16625;53.624;10.106;2022-07-10T14:49:48;18.90;99.90
4922;DHT22;16625;53.624;10.106;2022-07-10T14:52:15;18.70;99.90
4922;DHT22;16625;53.624;10.106;2022-07-10T14:54:44;18.70;99.90
4922;DHT22;16625;53.624;10.106;2022-07-10T14:57:11;18.70;99.90
4922;DHT22;16625;53.624;10.106;2022-07-10T14:59:39;19.00;99.90
4922;DHT22;16625;53.624;10.106;2022-07-10T15:02:08;19.90;99.90
4922;DHT22;16625;53.624;10.106;2022-07-10T15:04:35;18.90;99.90
4922;DHT22;16625;53.624;10.106;2022-07-10T15:07:02;18.80;99.90
4922;DHT22;16625;53.624;10.106;2022-07-10T15:09:29;19.00;99.90
4922;DHT22;16625;53.624;10.106;2022-07-10T15:11:56;19.90;99.90
4922;DHT22;16625;53.624;10.106;2022-07-10T15:14:32;19.20;99.90
4922;DHT22;16625;53.624;10.106;2022-07-10T15:16:59;19.40;99.90
4922;DHT22;16625;53.624;10.106;2022-07-10T15:19:27;19.50;99.90
4922;DHT22;16625;53.624;10.106;2022-07-10T15:21:54;19.50;99.90
4922;DHT22;16625;53.624;10.106;2022-07-10T15:24:21;19.90;99.90
4922;DHT22;16625;53.624;10.106;2022-07-10T15:26:48;20.40;99.90
4922;DHT22;16625;53.624;10.106;2022-07-10T15:29:16;20.00;99.90
4922;DHT22;16625;53.624;10.106;2022-07-10T15:31:46;20.10;99.90
4922;DHT22;16625;53.624;10.106;2022-07-10T15:34:13;20.40;99.90
4922;DHT22;16625;53.624;10.106;2022-07-10T15:36:43;20.00;99.90
4922;DHT22;16625;53.624;10.106;2022-07-10T15:39:14;19.90;99.90
4922;DHT22;16625;53.624;10.106;2022-07-10T15:41:41;19.50;99.90
4922;DHT22;16625;53.624;10.106;2022-07-10T15:44:11;19.00;99.90
4922;DHT22;16625;53.624;10.106;2022-07-10T15:46:38;19.30;99.90
4922;DHT22;16625;53.624;10.106;2022-07-10T15:49:06;20.50;99.90
4922;DHT22;16625;53.624;10.106;2022-07-10T15:51:33;19.60;99.90
4922;DHT22;16625;53.624;10.106;2022-07-10T15:54:01;19.50;99.90
4922;DHT22;16625;53.624;10.106;2022-07-10T15:56:28;19.50;99.90
4922;DHT22;16625;53.624;10.106;2022-07-10T15:58:55;19.90;99.90
4922;DHT22;16625;53.624;10.106;2022-07-10T16:01:23;18.80;99.90
4922;DHT22;16625;53.624;10.106;2022-07-10T16:03:50;18.80;99.90
4922;DHT22;16625;53.624;10.106;2022-07-10T16:06:17;20.20;99.90
4922;DHT22;16625;53.624;10.106;2022-07-10T16:08:46;19.30;99.90
4922;DHT22;16625;53.624;10.106;2022-07-10T16:11:16;19.50;99.90
4922;DHT22;16625;53.624;10.106;2022-07-10T16:13:44;19.50;99.90
4922;DHT22;16625;53.624;10.106;2022-07-10T16:16:11;19.90;99.90
4922;DHT22;16625;53.624;10.106;2022-07-10T16:18:38;20.20;99.90
4922;DHT22;16625;53.624;10.106;2022-07-10T16:21:05;20.70;99.90
4922;DHT22;16625;53.624;10.106;2022-07-10T16:23:32;21.50;99.90
4922;DHT22;16625;53.624;10.106;2022-07-10T16:25:59;22.20;99.90
4922;DHT22;16625;53.624;10.106;2022-07-10T16:28:29;22.80;99.90
4922;DHT22;16625;53.624;10.106;2022-07-10T16:30:56;22.70;99.90
4922;DHT22;16625;53.624;10.106;2022-07-10T16:33:24;22.00;99.90
4922;DHT22;16625;53.624;10.106;2022-07-10T16:35:51;21.80;99.90